createdAt,value
2023-05-19T00:00:14.974Z,102685.16
2023-05-19T00:02:45.742Z,102686.94
2023-05-19T00:05:18.749Z,102688.66
2023-05-19T00:07:52.158Z,102689.56
2023-05-19T00:10:22.666Z,102690.41
2023-05-19T00:12:53.932Z,102684.28
2023-05-19T00:15:24.456Z,102683.47
2023-05-19T00:17:55.711Z,102680.72
2023-05-19T00:20:25.950Z,102682.38
2023-05-19T00:22:56.339Z,102677.19
2023-05-19T00:25:27.351Z,102668.41
2023-05-19T00:27:59.388Z,102678.91
2023-05-19T00:30:33.012Z,102672.88
2023-05-19T00:33:03.321Z,102671.97
2023-05-19T00:35:33.702Z,102675.50
2023-05-19T00:38:03.831Z,102673.69
2023-05-19T00:40:36.643Z,102673.63
2023-05-19T00:43:08.776Z,102671.84
2023-05-19T00:45:39.069Z,102677.06
2023-05-19T00:48:09.446Z,102673.53
2023-05-19T00:50:40.871Z,102668.16
2023-05-19T00:53:11.813Z,102678.59
2023-05-19T00:55:42.998Z,102673.38
2023-05-19T00:58:14.836Z,102675.94
2023-05-19T01:00:45.950Z,102674.22
2023-05-19T01:03:20.830Z,102674.19
2023-05-19T01:05:53.913Z,102681.16
2023-05-19T01:08:24.393Z,102681.94
2023-05-19T01:10:54.812Z,102674.13
2023-05-19T01:13:25.490Z,102676.75
2023-05-19T01:16:07.227Z,102681.16
2023-05-19T01:18:45.109Z,102673.25
2023-05-19T01:21:36.565Z,102661.81
2023-05-19T01:24:47.699Z,102685.47
2023-05-19T01:27:34.872Z,102675.78
2023-05-19T01:30:23.975Z,102683.72
2023-05-19T01:33:01.610Z,102687.19
2023-05-19T01:35:33.668Z,102688.03
2023-05-19T01:38:05.239Z,102679.34
2023-05-19T01:40:36.524Z,102678.47
2023-05-19T01:43:09.277Z,102674.94
2023-05-19T01:45:40.748Z,102671.44
2023-05-19T01:48:12.984Z,102677.56
2023-05-19T01:50:44.260Z,102681.94
2023-05-19T01:53:14.610Z,102676.69
2023-05-19T01:55:50.381Z,102675.84
2023-05-19T01:58:23.274Z,102672.41
2023-05-19T02:00:56.876Z,102670.69
2023-05-19T02:03:40.421Z,102671.53
2023-05-19T02:06:29.187Z,102675.09
2023-05-19T02:09:16.270Z,102664.59
2023-05-19T02:12:03.976Z,102668.97
2023-05-19T02:14:39.261Z,102672.44
2023-05-19T02:17:12.767Z,102661.09
2023-05-19T02:19:43.860Z,102664.53
2023-05-19T02:22:14.001Z,102665.38
2023-05-19T02:24:46.701Z,102667.19
2023-05-19T02:27:16.894Z,102665.47
2023-05-19T02:29:47.118Z,102658.47
2023-05-19T02:32:17.996Z,102666.31
2023-05-19T02:34:48.717Z,102668.91
2023-05-19T02:37:19.016Z,102667.19
2023-05-19T02:39:49.668Z,102650.53
2023-05-19T02:42:19.874Z,102663.69
2023-05-19T02:44:50.176Z,102664.63
2023-05-19T02:47:20.496Z,102665.53
2023-05-19T02:49:50.621Z,102671.66
2023-05-19T02:52:20.794Z,102664.69
2023-05-19T02:54:51.476Z,102663.75
2023-05-19T02:57:22.058Z,102673.41
2023-05-19T02:59:52.395Z,102669.06
2023-05-19T03:02:22.584Z,102665.56
2023-05-19T03:04:53.326Z,102669.09
2023-05-19T03:07:25.542Z,102669.91
2023-05-19T03:09:55.957Z,102675.19
2023-05-19T03:12:26.236Z,102671.72
2023-05-19T03:14:56.444Z,102667.41
2023-05-19T03:17:26.831Z,102664.81
2023-05-19T03:19:57.099Z,102666.59
2023-05-19T03:22:27.318Z,102666.69
2023-05-19T03:24:58.701Z,102662.38
2023-05-19T03:27:29.385Z,102671.13
2023-05-19T03:29:59.498Z,102665.91
2023-05-19T03:32:29.727Z,102661.53
2023-05-19T03:35:00.067Z,102666.81
2023-05-19T03:37:30.277Z,102661.59
2023-05-19T03:40:00.637Z,102664.25
2023-05-19T03:42:30.983Z,102664.28
2023-05-19T03:45:01.365Z,102667.84
2023-05-19T03:47:31.953Z,102662.59
2023-05-19T03:50:02.504Z,102673.13
2023-05-19T03:52:32.602Z,102672.28
2023-05-19T03:55:02.803Z,102654.78
2023-05-19T03:57:33.841Z,102673.25
2023-05-19T04:00:06.187Z,102675.91
2023-05-19T04:02:36.406Z,102677.66
2023-05-19T04:05:07.445Z,102668.09
2023-05-19T04:07:38.088Z,102671.66
2023-05-19T04:10:08.588Z,102680.41
2023-05-19T04:12:38.785Z,102672.59
2023-05-19T04:15:11.622Z,102677.00
2023-05-19T04:17:42.170Z,102670.97
2023-05-19T04:20:12.779Z,102672.81
2023-05-19T04:22:43.005Z,102658.81
2023-05-19T04:25:13.518Z,102671.16
2023-05-19T04:27:43.719Z,102672.00
2023-05-19T04:30:18.572Z,102670.34
2023-05-19T04:32:52.278Z,102676.44
2023-05-19T04:35:22.979Z,102686.03
2023-05-19T04:37:56.990Z,102679.97
2023-05-19T04:40:27.562Z,102695.72
2023-05-19T04:42:58.247Z,102690.56
2023-05-19T04:45:28.612Z,102695.84
2023-05-19T04:47:59.532Z,102687.13
2023-05-19T04:50:31.231Z,102689.78
2023-05-19T04:53:01.667Z,102677.59
2023-05-19T04:55:33.052Z,102687.19
2023-05-19T04:58:03.193Z,102682.03
2023-05-19T05:00:36.104Z,102694.34
2023-05-19T05:03:07.410Z,102683.03
2023-05-19T05:05:37.886Z,102686.56
2023-05-19T05:08:08.145Z,102686.59
2023-05-19T05:10:38.264Z,102692.75
2023-05-19T05:13:10.580Z,102688.34
2023-05-19T05:15:42.139Z,102696.25
2023-05-19T05:18:12.792Z,102702.44
2023-05-19T05:20:44.146Z,102695.44
2023-05-19T05:23:14.853Z,102699.84
2023-05-19T05:25:45.309Z,102701.66
2023-05-19T05:28:15.851Z,102692.91
2023-05-19T05:30:46.614Z,102695.56
2023-05-19T05:33:18.427Z,102696.44
2023-05-19T05:35:50.208Z,102706.06
2023-05-19T05:38:20.392Z,102700.84
2023-05-19T05:40:50.611Z,102697.38
2023-05-19T05:43:20.875Z,102680.66
2023-05-19T05:45:51.094Z,102700.91
2023-05-19T05:48:21.646Z,102704.44
2023-05-19T05:50:53.019Z,102703.59
2023-05-19T05:53:25.790Z,102702.72
2023-05-19T05:55:56.503Z,102705.38
2023-05-19T05:58:26.630Z,102701.91
2023-05-19T06:00:58.047Z,102702.81
2023-05-19T06:03:28.322Z,102694.97
2023-05-19T06:05:58.641Z,102690.59
2023-05-19T06:08:28.831Z,102702.88
2023-05-19T06:10:59.183Z,102701.97
2023-05-19T06:13:29.460Z,102714.28
2023-05-19T06:16:01.857Z,102705.53
2023-05-19T06:18:32.710Z,102701.22
2023-05-19T06:21:03.632Z,102710.84
2023-05-19T06:23:33.816Z,102708.25
2023-05-19T06:26:04.018Z,102709.97
2023-05-19T06:28:34.308Z,102711.75
2023-05-19T06:31:04.666Z,102717.91
2023-05-19T06:33:35.044Z,102703.91
2023-05-19T06:36:05.731Z,102711.78
2023-05-19T06:38:35.961Z,102701.28
2023-05-19T06:41:06.285Z,102713.56
2023-05-19T06:43:36.550Z,102711.81
2023-05-19T06:46:07.780Z,102701.31
2023-05-19T06:48:37.993Z,102707.50
2023-05-19T06:51:10.329Z,102704.88
2023-05-19T06:53:40.651Z,102704.88
2023-05-19T06:56:13.454Z,102711.91
2023-05-19T06:58:43.877Z,102705.75
2023-05-19T07:01:14.208Z,102706.63
2023-05-19T07:03:44.514Z,102709.28
2023-05-19T07:06:14.921Z,102700.50
2023-05-19T07:08:45.116Z,102711.91
2023-05-19T07:11:16.851Z,102706.66
2023-05-19T07:13:46.998Z,102701.41
2023-05-19T07:16:17.267Z,102710.16
2023-05-19T07:18:47.699Z,102706.63
2023-05-19T07:21:17.893Z,102702.25
2023-05-19T07:23:48.332Z,102702.25
2023-05-19T07:26:18.565Z,102707.50
2023-05-19T07:28:48.766Z,102711.91
2023-05-19T07:31:19.706Z,102711.00
2023-05-19T07:33:51.578Z,102711.00
2023-05-19T07:36:23.559Z,102704.84
2023-05-19T07:38:53.768Z,102707.47
2023-05-19T07:41:24.153Z,102698.72
2023-05-19T07:43:57.243Z,102703.09
2023-05-19T07:46:27.542Z,102702.22
2023-05-19T07:48:57.771Z,102701.34
2023-05-19T07:51:28.041Z,102703.97
2023-05-19T07:53:58.470Z,102710.94
2023-05-19T07:56:29.831Z,102715.31
2023-05-19T07:59:00.012Z,102710.03
2023-05-19T08:01:31.299Z,102709.09
2023-05-19T08:04:01.637Z,102707.28
2023-05-19T08:06:31.998Z,102704.63
2023-05-19T08:09:02.158Z,102707.22
2023-05-19T08:11:32.413Z,102706.31
2023-05-19T08:14:03.010Z,102705.41
2023-05-19T08:16:33.217Z,102707.09
2023-05-19T08:19:05.682Z,102709.72
2023-05-19T08:21:36.694Z,102698.25
2023-05-19T08:24:06.961Z,102697.31
2023-05-19T08:26:37.906Z,102688.44
2023-05-19T08:29:08.315Z,102677.84
2023-05-19T08:31:38.476Z,102688.19
2023-05-19T08:34:09.737Z,102689.03
2023-05-19T08:36:40.988Z,102691.53
2023-05-19T08:39:12.104Z,102688.75
2023-05-19T08:41:42.308Z,102691.34
2023-05-19T08:44:12.452Z,102688.63
2023-05-19T08:46:42.932Z,102689.44
2023-05-19T08:49:15.879Z,102685.88
2023-05-19T08:52:12.055Z,102692.81
2023-05-19T08:54:51.052Z,102691.03
2023-05-19T08:57:23.725Z,102688.34
2023-05-19T08:59:56.148Z,102689.25
2023-05-19T09:02:26.813Z,102691.94
2023-05-19T09:04:57.811Z,102682.34
2023-05-19T09:07:30.216Z,102682.38
2023-05-19T09:10:01.468Z,102680.66
2023-05-19T09:12:31.768Z,102689.53
2023-05-19T09:15:02.895Z,102694.00
2023-05-19T09:17:34.131Z,102692.22
2023-05-19T09:20:11.360Z,102689.59
2023-05-19T09:22:47.558Z,102695.69
2023-05-19T09:25:18.280Z,102693.91
2023-05-19T09:27:49.836Z,102696.63
2023-05-19T09:30:20.579Z,102701.91
2023-05-19T09:32:52.340Z,102638.00
2023-05-19T09:35:22.527Z,102701.88
2023-05-19T09:37:53.250Z,102680.75
2023-05-19T09:40:28.340Z,102685.97
2023-05-19T09:42:58.532Z,102675.47
2023-05-19T09:45:28.733Z,102691.22
2023-05-19T09:48:04.762Z,102685.06
2023-05-19T09:50:35.937Z,102694.69
2023-05-19T09:53:06.556Z,102685.00
2023-05-19T09:55:37.310Z,102697.28
2023-05-19T09:58:07.604Z,102690.22
2023-05-19T10:00:38.999Z,102693.69
2023-05-19T10:03:09.857Z,102688.41
2023-05-19T10:05:41.874Z,102683.13
2023-05-19T10:08:12.782Z,102687.47
2023-05-19T10:10:43.134Z,102689.22
2023-05-19T10:13:13.812Z,102699.78
2023-05-19T10:15:57.407Z,102691.78
2023-05-19T10:18:29.972Z,102701.41
2023-05-19T10:21:00.955Z,102702.28
2023-05-19T10:23:31.119Z,102699.66
2023-05-19T10:26:05.295Z,102710.22
2023-05-19T10:28:38.649Z,102712.00
2023-05-19T10:31:13.936Z,102691.84
2023-05-19T10:34:08.923Z,102701.47
2023-05-19T10:36:47.871Z,102705.84
2023-05-19T10:39:25.735Z,102703.25
2023-05-19T10:41:58.520Z,102707.75
2023-05-19T10:45:03.591Z,102711.34
2023-05-19T10:47:35.191Z,102712.31
2023-05-19T10:50:06.932Z,102707.06
2023-05-19T10:52:38.630Z,102707.09
2023-05-19T10:55:15.768Z,102705.44
2023-05-19T10:57:57.061Z,102723.03
2023-05-19T11:00:29.057Z,102709.00
2023-05-19T11:03:16.044Z,102667.09
2023-05-19T11:05:46.663Z,102710.00
2023-05-19T11:08:18.185Z,102709.13
2023-05-19T11:10:52.371Z,102709.13
2023-05-19T11:13:23.272Z,102709.19
2023-05-19T11:15:53.759Z,102705.69
2023-05-19T11:18:24.817Z,102711.91
2023-05-19T11:21:02.575Z,102718.09
2023-05-19T11:23:40.028Z,102724.22
2023-05-19T11:26:10.278Z,102720.75
2023-05-19T11:28:41.353Z,102710.25
2023-05-19T11:31:12.084Z,102720.81
2023-05-19T11:33:42.432Z,102707.72
2023-05-19T11:36:13.172Z,102725.25
2023-05-19T11:38:45.392Z,102731.47
2023-05-19T11:41:18.185Z,102733.28
2023-05-19T11:43:50.059Z,102715.78
2023-05-19T11:46:20.447Z,102725.47
2023-05-19T11:48:51.336Z,102727.25
2023-05-19T11:51:22.606Z,102732.53
2023-05-19T11:53:55.191Z,102733.41
2023-05-19T11:56:25.347Z,102735.13
2023-05-19T11:58:55.706Z,102724.63
2023-05-19T12:01:28.752Z,102737.75
2023-05-19T12:03:59.057Z,102736.00
2023-05-19T12:06:30.051Z,102736.91
2023-05-19T12:09:01.240Z,102733.38
2023-05-19T12:11:32.062Z,102738.63
2023-05-19T12:14:02.515Z,102747.34
2023-05-19T12:16:36.003Z,102735.06
2023-05-19T12:19:07.947Z,102740.34
2023-05-19T12:21:38.269Z,102740.34
2023-05-19T12:24:09.389Z,102740.38
2023-05-19T12:26:40.716Z,102736.91
2023-05-19T12:29:13.190Z,102752.69
2023-05-19T12:31:47.356Z,102742.19
2023-05-19T12:34:17.719Z,102747.44
2023-05-19T12:36:48.003Z,102751.00
2023-05-19T12:39:19.511Z,102756.25
2023-05-19T12:41:50.991Z,102751.88
2023-05-19T12:44:21.138Z,102747.53
2023-05-19T12:46:52.510Z,102743.16
2023-05-19T12:49:22.755Z,102744.06
2023-05-19T12:51:54.385Z,102749.34
2023-05-19T12:54:24.703Z,102749.38
2023-05-19T12:56:59.466Z,102759.00
2023-05-19T12:59:38.921Z,102752.91
2023-05-19T13:02:09.712Z,102751.16
2023-05-19T13:04:39.960Z,102750.31
2023-05-19T13:07:10.542Z,102741.53
2023-05-19T13:09:40.708Z,102744.19
2023-05-19T13:12:10.886Z,102734.53
2023-05-19T13:14:42.599Z,102739.81
2023-05-19T13:17:12.804Z,102752.09
2023-05-19T13:19:43.102Z,102751.25
2023-05-19T13:22:13.387Z,102755.66
2023-05-19T13:24:43.542Z,102760.03
2023-05-19T13:27:13.956Z,102753.91
2023-05-19T13:29:44.341Z,102752.22
2023-05-19T13:32:14.499Z,102750.47
2023-05-19T13:34:44.729Z,102750.44
2023-05-19T13:37:15.364Z,102744.31
2023-05-19T13:39:46.066Z,102750.47
2023-05-19T13:42:17.777Z,102752.22
2023-05-19T13:44:48.363Z,102744.34
2023-05-19T13:47:18.663Z,102739.09
2023-05-19T13:49:48.950Z,102752.22
2023-05-19T13:52:20.858Z,102754.88
2023-05-19T13:54:51.178Z,102748.75
2023-05-19T13:57:22.681Z,102744.34
2023-05-19T14:00:01.822Z,102747.84
2023-05-19T14:02:34.240Z,102738.19
2023-05-19T14:05:05.321Z,102747.00
2023-05-19T14:07:36.717Z,102748.72
2023-05-19T14:10:07.513Z,102753.13
2023-05-19T14:12:54.911Z,102753.09
2023-05-19T14:15:27.903Z,102749.59
2023-05-19T14:17:59.256Z,102749.59
2023-05-19T14:20:30.135Z,102756.59
2023-05-19T14:23:00.301Z,102754.00
2023-05-19T14:25:30.771Z,102753.09
2023-05-19T14:28:01.881Z,102757.47
2023-05-19T14:30:32.353Z,102755.75
2023-05-19T14:33:02.870Z,102754.84
2023-05-19T14:35:33.108Z,102761.84
2023-05-19T14:38:03.308Z,102762.75
2023-05-19T14:40:34.004Z,102758.34
2023-05-19T14:43:04.529Z,102748.72
2023-05-19T14:45:35.857Z,102741.72
2023-05-19T14:48:06.085Z,102741.69
2023-05-19T14:50:36.377Z,102735.59
2023-05-19T14:53:06.550Z,102710.16
2023-05-19T14:55:37.119Z,102717.19
2023-05-19T14:58:15.799Z,102719.78
2023-05-19T15:00:50.218Z,102718.94
2023-05-19T15:03:20.370Z,102706.66
2023-05-19T15:05:50.807Z,102708.41
2023-05-19T15:08:21.682Z,102709.28
2023-05-19T15:10:51.966Z,102711.03
2023-05-19T15:13:22.219Z,102716.28
2023-05-19T15:16:08.217Z,102702.25
2023-05-19T15:18:45.853Z,102698.75
2023-05-19T15:21:16.131Z,102693.50
2023-05-19T15:23:46.366Z,102692.63
2023-05-19T15:26:16.978Z,102698.75
2023-05-19T15:28:47.224Z,102695.25
2023-05-19T15:31:18.059Z,102697.00
2023-05-19T15:33:48.258Z,102687.34
2023-05-19T15:36:18.873Z,102698.75
2023-05-19T15:38:49.081Z,102683.84
2023-05-19T15:41:19.297Z,102692.63
2023-05-19T15:43:49.510Z,102690.88
2023-05-19T15:46:19.934Z,102697.03
2023-05-19T15:48:50.165Z,102689.13
2023-05-19T15:51:20.333Z,102689.13
2023-05-19T15:53:50.548Z,102693.50
2023-05-19T15:56:21.771Z,102686.50
2023-05-19T15:58:52.058Z,102690.88
2023-05-19T16:01:22.552Z,102683.84
2023-05-19T16:03:52.913Z,102688.22
2023-05-19T16:06:24.769Z,102685.63
2023-05-19T16:08:55.104Z,102687.38
2023-05-19T16:11:25.323Z,102686.50
2023-05-19T16:13:55.959Z,102680.31
2023-05-19T16:16:26.242Z,102682.03
2023-05-19T16:18:56.495Z,102686.38
2023-05-19T16:21:26.833Z,102679.34
2023-05-19T16:23:57.138Z,102690.72
2023-05-19T16:26:29.122Z,102688.09
2023-05-19T16:28:59.384Z,102684.59
2023-05-19T16:31:30.172Z,102685.47
2023-05-19T16:34:00.315Z,102685.44
2023-05-19T16:36:30.462Z,102680.19
2023-05-19T16:39:00.853Z,102665.31
2023-05-19T16:41:30.937Z,102666.19
2023-05-19T16:44:02.548Z,102671.44
2023-05-19T16:46:32.984Z,102681.94
2023-05-19T16:49:03.612Z,102683.72
2023-05-19T16:51:33.768Z,102678.47
2023-05-19T16:54:04.267Z,102689.84
2023-05-19T16:56:34.598Z,102676.69
2023-05-19T16:59:04.810Z,102682.84
2023-05-19T17:01:35.130Z,102688.09
2023-05-19T17:04:05.545Z,102685.44
2023-05-19T17:06:36.037Z,102688.94
2023-05-19T17:09:06.381Z,102688.03
2023-05-19T17:11:36.616Z,102691.56
2023-05-19T17:14:09.773Z,102683.66
2023-05-19T17:16:39.981Z,102694.16
2023-05-19T17:19:11.248Z,102684.50
2023-05-19T17:21:41.744Z,102686.25
2023-05-19T17:24:12.028Z,102691.50
2023-05-19T17:26:42.229Z,102688.84
2023-05-19T17:29:12.394Z,102680.94
2023-05-19T17:31:42.943Z,102672.22
2023-05-19T17:34:13.246Z,102675.69
2023-05-19T17:36:43.556Z,102678.31
2023-05-19T17:39:13.780Z,102679.19
2023-05-19T17:41:44.132Z,102679.19
2023-05-19T17:44:15.097Z,102680.91
2023-05-19T17:46:45.359Z,102669.50
2023-05-19T17:49:15.620Z,102676.53
2023-05-19T17:51:47.510Z,102665.97
2023-05-19T17:54:17.985Z,102676.47
2023-05-19T17:56:49.919Z,102680.88
2023-05-19T17:59:20.335Z,102672.97
2023-05-19T18:01:50.971Z,102675.59
2023-05-19T18:04:21.667Z,102681.72
2023-05-19T18:06:52.978Z,102689.59
2023-05-19T18:09:28.523Z,102675.56
2023-05-19T18:12:02.538Z,102679.03
2023-05-19T18:14:32.878Z,102678.06
2023-05-19T18:17:03.256Z,102687.69
2023-05-19T18:19:33.414Z,102688.56
2023-05-19T18:22:03.812Z,102688.53
2023-05-19T18:24:34.035Z,102685.91
2023-05-19T18:27:04.293Z,102688.56
2023-05-19T18:29:35.031Z,102686.75
2023-05-19T18:32:05.596Z,102692.00
2023-05-19T18:34:35.843Z,102679.72
2023-05-19T18:37:06.090Z,102685.84
2023-05-19T18:39:37.281Z,102687.59
2023-05-19T18:42:07.458Z,102694.53
2023-05-19T18:44:37.665Z,102694.53
2023-05-19T18:47:08.053Z,102696.28
2023-05-19T18:49:38.315Z,102694.50
2023-05-19T18:52:08.719Z,102690.09
2023-05-19T18:54:39.141Z,102700.59
2023-05-19T18:57:09.594Z,102708.44
2023-05-19T18:59:39.938Z,102705.78
2023-05-19T19:02:10.213Z,102715.41
2023-05-19T19:04:40.382Z,102716.22
2023-05-19T19:07:10.591Z,102722.34
2023-05-19T19:09:44.023Z,102717.09
2023-05-19T19:12:14.244Z,102708.28
2023-05-19T19:14:44.420Z,102703.91
2023-05-19T19:17:14.727Z,102705.66
2023-05-19T19:19:45.017Z,102712.63
2023-05-19T19:22:15.258Z,102696.84
2023-05-19T19:24:45.674Z,102702.94
2023-05-19T19:27:17.824Z,102692.41
2023-05-19T19:29:48.102Z,102703.78
2023-05-19T19:32:18.267Z,102695.03
2023-05-19T19:34:48.409Z,102694.13
2023-05-19T19:37:21.353Z,102698.50
2023-05-19T19:39:51.576Z,102702.84
2023-05-19T19:42:22.245Z,102680.06
2023-05-19T19:44:56.016Z,102697.53
2023-05-19T19:47:27.367Z,102698.41
2023-05-19T19:49:57.582Z,102698.41
2023-05-19T19:52:27.873Z,102695.72
2023-05-19T19:54:58.143Z,102698.38
2023-05-19T19:57:29.621Z,102698.34
2023-05-19T20:00:07.791Z,102700.06
2023-05-19T20:02:45.479Z,102690.47
2023-05-19T20:05:26.092Z,102680.81
2023-05-19T20:07:56.268Z,102707.09
2023-05-19T20:10:26.572Z,102689.53
2023-05-19T20:12:58.931Z,102704.47
2023-05-19T20:15:31.863Z,102693.91
2023-05-19T20:18:02.040Z,102685.19
2023-05-19T20:21:02.442Z,102693.91
2023-05-19T20:23:32.641Z,102689.50
2023-05-19T20:26:13.377Z,102695.63
2023-05-19T20:28:43.922Z,102689.50
2023-05-19T20:31:33.380Z,102691.28
2023-05-19T20:34:03.894Z,102691.28
2023-05-19T20:36:34.301Z,102683.38
2023-05-19T20:39:04.610Z,102684.22
2023-05-19T20:41:34.873Z,102684.22
2023-05-19T20:44:05.282Z,102684.22
2023-05-19T20:46:35.559Z,102688.56
2023-05-19T20:49:05.920Z,102679.88
2023-05-19T20:51:36.210Z,102680.72
2023-05-19T20:54:07.476Z,102676.34
2023-05-19T20:56:38.800Z,102680.81
2023-05-19T20:59:09.022Z,102680.78
2023-05-19T21:01:39.450Z,102682.53
2023-05-19T21:04:09.760Z,102675.34
2023-05-19T21:06:40.047Z,102686.78
2023-05-19T21:09:10.917Z,102694.69
2023-05-19T21:11:48.126Z,102692.06
2023-05-19T21:14:22.346Z,102690.34
2023-05-19T21:16:54.453Z,102693.84
2023-05-19T21:19:29.644Z,102691.22
2023-05-19T21:21:59.890Z,102685.16
2023-05-19T21:24:31.213Z,102676.41
2023-05-19T21:27:01.405Z,102684.28
2023-05-19T21:29:31.843Z,102676.41
2023-05-19T21:32:02.144Z,102679.06
2023-05-19T21:34:32.276Z,102690.44
2023-05-19T21:37:02.485Z,102691.31
2023-05-19T21:39:32.737Z,102686.94
2023-05-19T21:42:03.694Z,102674.66
2023-05-19T21:44:33.995Z,102671.19
2023-05-19T21:47:04.319Z,102673.78
2023-05-19T21:49:34.512Z,102665.03
2023-05-19T21:52:04.975Z,102688.66
2023-05-19T21:54:35.425Z,102688.66
2023-05-19T21:57:05.931Z,102681.66
2023-05-19T21:59:36.172Z,102678.09
2023-05-19T22:02:06.749Z,102689.44
2023-05-19T22:04:37.300Z,102694.69
2023-05-19T22:07:07.622Z,102680.56
2023-05-19T22:09:38.272Z,102699.91
2023-05-19T22:12:08.691Z,102693.66
2023-05-19T22:14:38.972Z,102698.00
2023-05-19T22:17:09.123Z,102690.03
2023-05-19T22:19:39.304Z,102687.41
2023-05-19T22:22:14.137Z,102686.53
2023-05-19T22:24:44.943Z,102690.91
2023-05-19T22:27:15.123Z,102687.31
2023-05-19T22:29:45.326Z,102696.06
2023-05-19T22:32:18.248Z,102693.38
2023-05-19T22:34:48.571Z,102691.59
2023-05-19T22:37:19.123Z,102697.72
2023-05-19T22:39:49.294Z,102701.19
2023-05-19T22:42:19.439Z,102696.72
2023-05-19T22:44:49.554Z,102695.00
2023-05-19T22:47:19.723Z,102690.69
2023-05-19T22:49:51.340Z,102691.66
2023-05-19T22:52:21.748Z,102690.81
2023-05-19T22:54:52.088Z,102685.56
2023-05-19T22:57:22.343Z,102686.44
2023-05-19T22:59:52.507Z,102684.75
2023-05-19T23:02:22.741Z,102685.66
2023-05-19T23:04:52.963Z,102677.81
2023-05-19T23:07:23.147Z,102686.59
2023-05-19T23:09:53.288Z,102680.47
2023-05-19T23:12:23.508Z,102679.63
2023-05-19T23:14:53.716Z,102679.63
2023-05-19T23:17:24.055Z,102685.78
2023-05-19T23:19:54.253Z,102690.09
2023-05-19T23:22:24.480Z,102693.66
2023-05-19T23:24:54.698Z,102691.91
2023-05-19T23:27:24.887Z,102691.00
2023-05-19T23:29:55.062Z,102690.16
2023-05-19T23:32:25.265Z,102691.88
2023-05-19T23:34:55.462Z,102685.75
2023-05-19T23:37:25.669Z,102690.06
2023-05-19T23:39:56.025Z,102689.16
2023-05-19T23:42:26.235Z,102696.13
2023-05-19T23:44:56.419Z,102686.53
2023-05-19T23:47:27.011Z,102683.97
2023-05-19T23:49:57.231Z,102690.09
2023-05-19T23:52:27.479Z,102691.84
2023-05-19T23:54:57.659Z,102692.72
2023-05-19T23:57:27.824Z,102692.72
2023-05-19T23:59:58.099Z,102691.78
